Weather observations for the past three days for
Bogue Field Marine Corps Auxiliary Field
Metric (Imperial)
Date Time (edt) Wind (kph) Vis. (km) Weather Sky Cond. Temperature (ºC) Relative Humidity Wind Chill (°C) Heat Index (°C) Pressure Precipitation (cm)
Air Dwpt 6 hour altimeter (cm) sea level (mb) 1 hr 3 hr 6 hr
Max. Min.
04 20:51 SW 19 G 31 12.87 Fair CLR 18.9 12.8 68% 76.3 1017.6
04 19:51 SW 22 G 35 11.27 Fair CLR 19.4 12.2 22.2 19.4 63% 76.28 1017.3
04 18:51 SW 24 G 39 11.27 Fair CLR 20.6 11.1 55% 76.25 1017.0
04 17:51 SW 26 G 44 11.27 Fair CLR 21.1 10.6 51% 76.28 1017.2
04 15:51 S 31 G 44 11.27 Fair CLR 22.2 11.1 50% 76.33 1017.7
04 14:51 S 26 G 41 11.27 Fair CLR 21.7 10.6 49% 76.35 1018.3
04 13:51 S 26 G 39 11.27 Fair CLR 21.7 11.1 22.2 15.6 51% 76.35 1018.4
04 10:51 SW 19 11.27 Fair CLR 20 11.7 59% 76.43 1019.2
04 09:51 SW 17 11.27 Fair CLR 19.4 10.6 57% 76.43 1019.2
04 07:51 Calm 11.27 Fair CLR 15.6 10.6 15.6 8.3 72% 76.45 1019.5
04 04:51 Calm 11.27 Fair CLR 9.4 8.3 93% 76.43 1019.4
04 02:51 Calm 12.87 Fair CLR 9.4 8.3 93% 76.43 1019.1
04 01:51 Calm 12.87 Fair CLR 11.1 8.9 16.7 11.1 86% 76.43 1019.4
03 23:51 SW 17 12.87 Fair CLR 16.1 10 67% 76.45 1019.4
03 20:51 SW 15 12.87 Fair CLR 16.1 8.9 63% 76.35 1018.3
03 19:51 Vrbl 6 11.27 Fair CLR 16 6 52% 0 0.0
03 15:51 W 19 G 28 11.27 Fair CLR 18.9 2.2 33% 76.28 1017.4
03 13:51 Vrbl 9 G 30 11.27 Fair CLR 17.8 2.2 18.3 10 35% 76.38 1018.7
03 12:51 W 13 G 39 11.27 Fair CLR 16.7 1.7 37% 76.4 1019.1
03 11:51 NW 11 11.27 Fair CLR 15.6 2.8 42% 76.45 1019.6
03 10:51 N 11 G 39 11.27 Fair CLR 13.9 4.4 53% 76.43 1019.3
03 09:51 NW 20 G 30 11.27 Fair CLR 12.8 5.6 62% 76.43 1019.1
03 08:51 N 19 G 31 11.27 Fair CLR 11.1 5 66% 76.38 1018.5
03 05:51 NW 11 11.27 Fair CLR 8.9 7.8 93% 7 76.2 1016.4
03 04:51 W 7 8.05 Fog/Mist CLR 8.9 8.3 96% 8 76.17 1015.8
02 23:51 NW 7 11.27 Overcast OVC095 10.6 9.4 92% 75.97 1013.3
02 22:51 N 9 11.27 Light Rain OVC085 10.6 10 96% 75.97 1013.3
02 21:51 N 9 11.27 Overcast FEW070 OVC080 11.1 10 93% 75.95 1012.9
02 19:51 N 13 G 31 4.83 Light Rain Fog/Mist FEW006 OVC013 12.2 11.1 15 12.2 93% 75.84 1011.6
02 18:51 N 13 4.83 Rain Fog/Mist BKN008 BKN022 OVC060 13.3 12.2 93% 75.79 1010.8
02 17:51 N 9 8.05 Light Rain Fog/Mist FEW008 SCT037 OVC045 13.3 12.8 97% 75.74 1010.2
02 15:51 N 15 6.44 Light Rain Fog/Mist FEW006 BKN028 OVC037 13.9 13.3 96% 75.74 1010.3
02 10:51 N 17 9.66 Overcast with Haze FEW043 OVC100 15 12.2 83% 75.87 1011.9
02 07:51 N 13 9.66 Fog/Mist BKN005 BKN016 OVC075 13.3 12.8 14.4 13.3 97% 75.9 1012.0
02 06:51 N 11 8.05 Light Rain Fog/Mist OVC080 13.3 12.8 97% 75.82 1011.2
02 05:51 NW 11 11.27 Light Rain OVC080 13.9 13.3 96% 75.84 1011.3
02 03:51 Calm 12.87 Light Rain OVC100 13.9 12.8 93% 75.82 1011.1
02 02:51 NE 6 14.48 Overcast BKN030 BKN050 OVC080 13.9 11.7 87% 75.84 1011.4
02 01:51 Calm 14.48 Overcast FEW028 OVC110 13.9 11.7 15.6 13.3 87% 75.87 1011.8
02 00:51 N 7 14.48 Mostly Cloudy BKN100 13.9 10.6 81% 75.92 1012.5
Date Time (edt) Wind (kph) Vis. (km) Weather Sky Cond. Air Dwpt Max. Min. Relative Humidity Wind Chill (°C) Heat Index (°C) altimeter (cm) sea level (mb) 1 hr 3 hr 6 hr
6 hour
Temperature (ºC) Pressure Precipitation (cm)